Time;durP1;ratioP1;P1;durP2;ratioP2;P2;SDS_P1;SDS_P2;PMS_P1;PMS_P2;Temp;Humidity;BMP_temperature;BMP_pressure;BME280_temperature;BME280_humidity;BME280_pressure;Samples;Min_cycle;Max_cycle;Signal;HPM_P1;HPM_P2
2022/10/03 00:00:10;;;;;;;;;;;10.50;81.70;;;;;;5088238;28;20011;-79
2022/10/03 00:02:35;;;;;;;;;;;10.50;80.90;;;;;;5076678;28;19916;-78
2022/10/03 00:05:01;;;;;;;;;;;10.50;80.90;;;;;;5096466;28;19923;-79
2022/10/03 00:07:29;;;;;;;;;;;10.50;80.90;;;;;;5093439;28;20296;-78
2022/10/03 00:10:07;;;;;;;;;;;10.50;80.90;;;;;;5094509;28;19908;-77
2022/10/03 00:12:48;;;;;;;;;;;10.50;81.00;;;;;;5104260;28;20308;-78
2022/10/03 00:15:27;;;;;;;;;;;10.40;81.00;;;;;;5097501;28;19934;-78
2022/10/03 00:18:01;;;;;;;;;;;10.40;81.00;;;;;;5077585;28;19927;-79
2022/10/03 00:20:36;;;;;;;;;;;10.40;81.00;;;;;;5077504;28;19923;-77
2022/10/03 00:23:03;;;;;;;;;;;10.40;81.00;;;;;;5104140;28;19919;-79
2022/10/03 00:25:28;;;;;;;;;;;10.40;81.80;;;;;;5084773;28;20376;-78
2022/10/03 00:28:13;;;;;;;;;;;10.40;81.00;;;;;;5098693;28;19999;-79
2022/10/03 00:30:41;;;;;;;;;;;10.30;81.00;;;;;;5105568;28;19975;-78
2022/10/03 00:33:07;;;;;;;;;;;10.30;81.00;;;;;;5077131;28;19983;-79
2022/10/03 00:35:32;;;;;;;;;;;10.30;81.10;;;;;;5076534;28;19986;-79
2022/10/03 00:38:04;;;;;;;;;;;10.30;81.10;;;;;;5096308;28;19919;-78
2022/10/03 00:40:48;;;;;;;;;;;10.30;81.10;;;;;;5094826;28;19916;-78
2022/10/03 00:43:26;;;;;;;;;;;10.20;81.10;;;;;;5077828;28;19912;-78
2022/10/03 00:46:09;;;;;;;;;;;10.20;81.20;;;;;;5074763;28;19973;-78
2022/10/03 00:48:53;;;;;;;;;;;10.20;81.20;;;;;;5078213;28;19952;-77
2022/10/03 00:51:31;;;;;;;;;;;10.10;81.20;;;;;;5076482;28;19912;-78
2022/10/03 00:54:05;;;;;;;;;;;10.10;81.20;;;;;;5093766;28;19927;-77
2022/10/03 00:56:40;;;;;;;;;;;10.10;81.20;;;;;;5095689;28;19915;-78
2022/10/03 00:59:24;;;;;;;;;;;10.10;81.20;;;;;;5081867;28;21453;-77
2022/10/03 01:01:50;;;;;;;;;;;10.10;81.20;;;;;;5055506;28;19912;-79
2022/10/03 01:04:34;;;;;;;;;;;10.10;81.20;;;;;;5078913;28;20197;-79
2022/10/03 01:07:02;;;;;;;;;;;10.00;81.20;;;;;;5096777;28;19920;-79
2022/10/03 01:09:40;;;;;;;;;;;10.00;81.20;;;;;;5093574;28;20056;-79
2022/10/03 01:12:24;;;;;;;;;;;10.00;81.30;;;;;;5078598;28;19915;-79
2022/10/03 01:14:52;;;;;;;;;;;9.90;81.30;;;;;;5096957;28;19920;-79
2022/10/03 01:17:28;;;;;;;;;;;9.90;81.30;;;;;;5080655;28;19937;-78
2022/10/03 01:19:59;;;;;;;;;;;9.90;82.20;;;;;;5088112;28;20089;-79
2022/10/03 01:22:42;;;;;;;;;;;9.90;81.40;;;;;;5089914;28;19920;-79
2022/10/03 01:25:18;;;;;;;;;;;9.90;81.40;;;;;;5068247;28;19923;-78
2022/10/03 01:30:37;;;;;;;;;;;9.80;81.40;;;;;;5081300;28;20025;-79
2022/10/03 01:33:09;;;;;;;;;;;9.80;81.40;;;;;;5078318;28;19910;-78
2022/10/03 01:35:39;;;;;;;;;;;9.80;81.50;;;;;;5078154;28;19920;-79
2022/10/03 01:38:19;;;;;;;;;;;9.70;81.40;;;;;;5096929;28;19979;-79
2022/10/03 01:40:51;;;;;;;;;;;9.70;81.50;;;;;;5069387;28;19923;-79
2022/10/03 01:43:19;;;;;;;;;;;9.70;81.50;;;;;;5084133;28;19923;-79
2022/10/03 01:45:51;;;;;;;;;;;9.70;81.50;;;;;;5064469;28;20161;-78
2022/10/03 01:48:35;;;;;;;;;;;9.70;81.60;;;;;;5097428;28;19931;-79
2022/10/03 01:51:06;;;;;;;;;;;9.70;81.60;;;;;;5080785;28;19979;-79
2022/10/03 01:53:47;;;;;;;;;;;9.60;81.60;;;;;;5097040;28;19927;-79
2022/10/03 01:56:12;;;;;;;;;;;9.60;81.60;;;;;;5092598;28;19908;-79
2022/10/03 01:58:47;;;;;;;;;;;9.60;81.60;;;;;;5096485;28;19970;-80
2022/10/03 02:01:33;;;;;;;;;;;9.60;81.60;;;;;;5041991;28;21417;-79
2022/10/03 02:04:20;;;;;;;;;;;9.60;81.60;;;;;;5084852;28;19923;-79
2022/10/03 02:07:01;;;;;;;;;;;9.50;81.60;;;;;;5068485;28;19913;-79
2022/10/03 02:09:28;;;;;;;;;;;9.50;81.70;;;;;;5084497;28;19923;-78
2022/10/03 02:12:00;;;;;;;;;;;9.50;81.70;;;;;;5068411;28;19912;-79
2022/10/03 02:14:44;;;;;;;;;;;9.50;82.50;;;;;;5097461;28;19947;-78
2022/10/03 02:17:29;;;;;;;;;;;9.40;81.70;;;;;;5075902;28;19922;-78
2022/10/03 02:19:56;;;;;;;;;;;9.40;81.70;;;;;;5083928;28;20416;-79
2022/10/03 02:22:35;;;;;;;;;;;9.40;81.70;;;;;;5081941;28;19932;-79
2022/10/03 02:25:01;;;;;;;;;;;9.40;81.70;;;;;;5106663;27;19912;-79
2022/10/03 02:27:41;;;;;;;;;;;9.40;81.80;;;;;;5085573;28;19919;-79
2022/10/03 02:30:15;;;;;;;;;;;9.40;81.80;;;;;;5057919;28;19919;-78
2022/10/03 02:32:59;;;;;;;;;;;9.30;81.70;;;;;;5067284;28;19916;-78
2022/10/03 02:35:36;;;;;;;;;;;9.30;81.70;;;;;;5087922;28;20672;-79
2022/10/03 02:38:14;;;;;;;;;;;9.30;81.70;;;;;;5091676;28;19912;-79
2022/10/03 02:40:50;;;;;;;;;;;9.30;81.80;;;;;;5058230;28;20446;-78
2022/10/03 02:43:19;;;;;;;;;;;9.30;81.80;;;;;;5074037;28;19916;-79
2022/10/03 02:45:45;;;;;;;;;;;9.30;82.60;;;;;;5053721;28;19925;-79
2022/10/03 02:48:29;;;;;;;;;;;9.30;81.90;;;;;;5065891;28;20006;-78
2022/10/03 02:51:05;;;;;;;;;;;9.30;81.90;;;;;;5045929;28;20002;-78
2022/10/03 02:53:40;;;;;;;;;;;9.20;81.80;;;;;;5066979;28;19924;-78
2022/10/03 02:56:09;;;;;;;;;;;9.20;81.80;;;;;;5071060;28;19923;-80
2022/10/03 02:58:40;;;;;;;;;;;9.20;81.90;;;;;;5071693;28;20748;-78
2022/10/03 03:01:18;;;;;;;;;;;9.20;81.90;;;;;;5065811;28;20457;-79
2022/10/03 03:04:04;;;;;;;;;;;9.20;81.90;;;;;;5065697;28;20086;-78
2022/10/03 03:06:34;;;;;;;;;;;9.20;81.90;;;;;;5065614;28;19959;-78
2022/10/03 03:09:22;;;;;;;;;;;9.20;81.90;;;;;;5050731;28;19971;-78
2022/10/03 03:11:58;;;;;;;;;;;9.10;81.90;;;;;;5080826;28;19924;-79
2022/10/03 03:14:36;;;;;;;;;;;9.10;81.90;;;;;;5084417;28;19931;-79
2022/10/03 03:17:07;;;;;;;;;;;9.10;82.00;;;;;;5065653;28;19912;-79
2022/10/03 03:19:45;;;;;;;;;;;9.10;81.90;;;;;;5055693;28;20305;-79
2022/10/03 03:22:19;;;;;;;;;;;9.10;82.00;;;;;;5068096;28;19920;-78
2022/10/03 03:24:47;;;;;;;;;;;9.00;81.90;;;;;;5054335;28;19916;-79
2022/10/03 03:27:12;;;;;;;;;;;9.00;82.00;;;;;;5070870;28;20418;-79
2022/10/03 03:29:54;;;;;;;;;;;9.00;82.10;;;;;;5052501;28;19912;-78
2022/10/03 03:32:27;;;;;;;;;;;9.00;82.10;;;;;;5054464;28;19927;-79
2022/10/03 03:35:12;;;;;;;;;;;9.00;82.10;;;;;;5066492;28;19925;-78
2022/10/03 03:37:47;;;;;;;;;;;8.90;82.00;;;;;;5064687;28;19972;-78
2022/10/03 03:40:12;;;;;;;;;;;8.90;82.10;;;;;;5051624;28;19923;-79
2022/10/03 03:42:43;;;;;;;;;;;8.80;82.10;;;;;;5072103;28;19944;-78
2022/10/03 03:45:18;;;;;;;;;;;8.90;82.10;;;;;;5038479;28;20410;-77
2022/10/03 03:48:07;;;;;;;;;;;8.90;82.20;;;;;;5037059;28;19922;-78
2022/10/03 03:50:32;;;;;;;;;;;8.90;82.20;;;;;;5049951;28;20346;-79
2022/10/03 03:53:01;;;;;;;;;;;8.80;82.10;;;;;;5049241;28;19917;-79
2022/10/03 03:55:26;;;;;;;;;;;8.80;82.20;;;;;;5047819;28;20530;-78
2022/10/03 03:58:12;;;;;;;;;;;8.80;82.10;;;;;;5071491;28;19926;-78
2022/10/03 04:00:56;;;;;;;;;;;8.80;82.20;;;;;;5070766;28;19912;-79
2022/10/03 04:03:42;;;;;;;;;;;8.70;82.10;;;;;;5049754;28;19913;-78
2022/10/03 04:06:26;;;;;;;;;;;8.70;82.10;;;;;;5066702;28;19919;-79
2022/10/03 04:08:58;;;;;;;;;;;8.70;82.20;;;;;;5065445;28;19987;-78
2022/10/03 04:11:36;;;;;;;;;;;8.70;82.30;;;;;;5063563;28;19924;-79
2022/10/03 04:14:20;;;;;;;;;;;8.70;82.30;;;;;;5049929;28;19916;-79
2022/10/03 04:19:47;;;;;;;;;;;8.70;82.30;;;;;;5036987;28;19934;-79
2022/10/03 04:22:19;;;;;;;;;;;8.70;82.30;;;;;;5022729;28;20426;-79
2022/10/03 04:24:44;;;;;;;;;;;8.70;82.30;;;;;;5055351;28;20602;-79
2022/10/03 04:27:18;;;;;;;;;;;8.70;82.40;;;;;;5055696;28;19916;-78
2022/10/03 04:29:50;;;;;;;;;;;8.60;82.30;;;;;;5052444;28;19919;-78
2022/10/03 04:32:25;;;;;;;;;;;8.60;82.30;;;;;;5049953;28;20564;-78
2022/10/03 04:35:09;;;;;;;;;;;8.60;82.30;;;;;;5051453;28;19920;-79
2022/10/03 04:38:04;;;;;;;;;;;8.60;82.40;;;;;;5080290;28;19927;-78
2022/10/03 04:40:37;;;;;;;;;;;8.60;82.40;;;;;;5036424;28;19940;-78
2022/10/03 04:43:03;;;;;;;;;;;8.60;82.40;;;;;;5041644;28;19916;-78
2022/10/03 04:45:35;;;;;;;;;;;8.60;82.40;;;;;;5089987;28;20487;-79
2022/10/03 04:48:09;;;;;;;;;;;8.60;82.40;;;;;;5059017;28;19920;-79
2022/10/03 04:50:47;;;;;;;;;;;8.60;82.40;;;;;;5077992;28;19916;-78
2022/10/03 04:53:21;;;;;;;;;;;8.60;82.40;;;;;;5053774;28;19949;-78
2022/10/03 04:55:47;;;;;;;;;;;8.60;82.40;;;;;;5070389;28;19987;-79
2022/10/03 04:58:31;;;;;;;;;;;8.60;82.40;;;;;;5091341;28;19954;-78
2022/10/03 05:01:13;;;;;;;;;;;8.60;82.40;;;;;;5052663;28;19951;-79
2022/10/03 05:03:41;;;;;;;;;;;8.60;82.40;;;;;;5094175;28;19917;-79
2022/10/03 05:06:22;;;;;;;;;;;8.60;82.40;;;;;;5087468;28;19920;-78
2022/10/03 05:08:55;;;;;;;;;;;8.60;82.40;;;;;;5074876;28;19977;-78
2022/10/03 05:11:23;;;;;;;;;;;8.60;82.40;;;;;;5091112;27;20336;-78
2022/10/03 05:13:48;;;;;;;;;;;8.60;82.40;;;;;;5086323;28;19911;-79
2022/10/03 05:16:17;;;;;;;;;;;8.70;82.40;;;;;;5099092;28;19919;-79
2022/10/03 05:18:56;;;;;;;;;;;8.70;82.40;;;;;;5068785;28;19926;-78
2022/10/03 05:21:31;;;;;;;;;;;8.60;82.40;;;;;;5089226;27;19911;-79
2022/10/03 05:24:08;;;;;;;;;;;8.60;82.40;;;;;;5089968;28;19970;-79
2022/10/03 05:26:34;;;;;;;;;;;8.60;82.40;;;;;;5078980;28;19971;-78
2022/10/03 05:29:14;;;;;;;;;;;8.60;82.40;;;;;;5076019;28;19945;-78
2022/10/03 05:31:45;;;;;;;;;;;8.60;82.40;;;;;;5072286;28;19923;-79
2022/10/03 05:34:30;;;;;;;;;;;8.60;82.40;;;;;;5095743;28;20029;-78
2022/10/03 05:37:01;;;;;;;;;;;8.60;82.50;;;;;;5087567;28;19912;-79
2022/10/03 05:39:33;;;;;;;;;;;8.60;82.70;;;;;;5105404;28;19939;-78
2022/10/03 05:42:04;;;;;;;;;;;8.60;82.50;;;;;;5097344;28;19916;-79
2022/10/03 05:44:58;;;;;;;;;;;8.60;82.50;;;;;;5098181;28;19927;-78
2022/10/03 05:47:48;;;;;;;;;;;8.60;82.50;;;;;;5066261;28;19920;-79
2022/10/03 05:50:27;;;;;;;;;;;8.60;82.50;;;;;;5069178;28;19912;-79
2022/10/03 05:52:52;;;;;;;;;;;8.60;82.50;;;;;;5093426;28;19927;-78
2022/10/03 05:55:27;;;;;;;;;;;8.60;82.50;;;;;;5081122;28;19944;-79
2022/10/03 05:57:57;;;;;;;;;;;8.60;82.50;;;;;;5099549;28;19920;-79
2022/10/03 06:00:29;;;;;;;;;;;8.60;82.50;;;;;;5083264;28;19920;-79
2022/10/03 06:03:17;;;;;;;;;;;8.60;82.50;;;;;;5090632;28;20019;-79
2022/10/03 06:06:01;;;;;;;;;;;8.60;82.50;;;;;;5109316;27;19912;-79
2022/10/03 06:08:45;;;;;;;;;;;8.60;82.50;;;;;;5097419;28;19916;-80
2022/10/03 06:11:18;;;;;;;;;;;8.60;82.50;;;;;;5086734;28;19916;-79
2022/10/03 06:13:52;;;;;;;;;;;8.70;82.50;;;;;;5102956;28;19960;-79
2022/10/03 06:16:20;;;;;;;;;;;8.70;82.60;;;;;;5073210;28;19912;-79
2022/10/03 06:18:52;;;;;;;;;;;8.70;82.40;;;;;;5074983;28;20395;-79
2022/10/03 06:21:36;;;;;;;;;;;8.70;82.50;;;;;;5076822;28;19919;-80
2022/10/03 06:24:21;;;;;;;;;;;8.70;82.40;;;;;;5087137;28;19920;-80
2022/10/03 06:26:46;;;;;;;;;;;8.80;82.50;;;;;;5088392;28;19962;-79
2022/10/03 06:29:24;;;;;;;;;;;8.80;82.40;;;;;;5092013;28;20295;-79
2022/10/03 06:32:08;;;;;;;;;;;8.80;82.40;;;;;;5069122;28;19938;-77
2022/10/03 06:34:52;;;;;;;;;;;8.90;82.40;;;;;;5059605;28;19922;-77
2022/10/03 06:37:39;;;;;;;;;;;8.90;82.40;;;;;;5069555;28;19971;-78
2022/10/03 06:40:16;;;;;;;;;;;9.00;82.40;;;;;;5054623;28;19937;-77
2022/10/03 06:43:11;;;;;;;;;;;9.10;82.40;;;;;;5056227;28;19923;-78
2022/10/03 06:45:36;;;;;;;;;;;9.10;82.40;;;;;;5024657;28;19968;-77
2022/10/03 06:48:21;;;;;;;;;;;9.20;82.30;;;;;;5063446;28;19916;-79
2022/10/03 06:50:46;;;;;;;;;;;9.30;82.40;;;;;;5089106;28;19935;-78
2022/10/03 06:53:21;;;;;;;;;;;9.30;82.30;;;;;;5065515;28;23102;-79
2022/10/03 06:55:53;;;;;;;;;;;9.40;82.30;;;;;;5075592;27;19963;-77
2022/10/03 06:58:24;;;;;;;;;;;9.50;82.20;;;;;;5093507;28;19920;-78
2022/10/03 07:00:52;;;;;;;;;;;9.50;82.10;;;;;;5080104;28;20321;-78
2022/10/03 07:03:21;;;;;;;;;;;9.60;82.90;;;;;;5091081;28;19966;-79
2022/10/03 07:05:46;;;;;;;;;;;9.70;82.10;;;;;;5077798;28;19916;-79
2022/10/03 07:08:15;;;;;;;;;;;9.80;82.00;;;;;;5086426;28;20002;-78
2022/10/03 07:10:46;;;;;;;;;;;9.90;82.00;;;;;;5081322;28;20412;-79
2022/10/03 07:13:25;;;;;;;;;;;10.00;81.90;;;;;;5087056;28;19916;-79
2022/10/03 07:16:08;;;;;;;;;;;10.10;81.90;;;;;;5081653;28;19944;-78
2022/10/03 07:18:33;;;;;;;;;;;10.20;81.80;;;;;;5076011;28;19916;-79
2022/10/03 07:21:22;;;;;;;;;;;10.30;81.80;;;;;;5087265;28;19927;-78
2022/10/03 07:23:50;;;;;;;;;;;10.40;81.80;;;;;;5082948;28;19969;-78
2022/10/03 07:26:36;;;;;;;;;;;10.50;81.70;;;;;;5075372;28;19943;-77
2022/10/03 07:29:20;;;;;;;;;;;10.60;81.70;;;;;;5075441;28;19912;-79
2022/10/03 07:31:53;;;;;;;;;;;10.80;81.70;;;;;;5084509;28;19935;-78
2022/10/03 07:34:21;;;;;;;;;;;10.80;81.40;;;;;;5071010;28;19975;-79
2022/10/03 07:39:46;;;;;;;;;;;11.10;81.40;;;;;;5074275;28;19922;-78
2022/10/03 07:42:17;;;;;;;;;;;11.20;81.30;;;;;;5075178;28;20407;-76
2022/10/03 07:45:04;;;;;;;;;;;11.40;81.30;;;;;;5086434;28;19952;-77
2022/10/03 07:47:38;;;;;;;;;;;11.50;81.20;;;;;;5085943;28;19920;-77
2022/10/03 07:50:13;;;;;;;;;;;11.60;81.00;;;;;;5075061;28;19981;-76
2022/10/03 07:52:57;;;;;;;;;;;11.70;80.90;;;;;;5092433;28;19944;-76
2022/10/03 07:55:23;;;;;;;;;;;11.80;80.90;;;;;;5094167;28;19927;-77
2022/10/03 07:57:54;;;;;;;;;;;12.00;80.80;;;;;;5093779;28;19915;-76
2022/10/03 08:00:21;;;;;;;;;;;12.10;80.70;;;;;;5092800;28;19991;-77
2022/10/03 08:03:13;;;;;;;;;;;12.30;80.70;;;;;;5077416;28;19912;-77
2022/10/03 08:05:39;;;;;;;;;;;12.40;80.50;;;;;;5056449;28;19912;-75
2022/10/03 08:08:13;;;;;;;;;;;12.60;80.30;;;;;;5083938;28;20300;-77
2022/10/03 08:10:59;;;;;;;;;;;12.70;80.20;;;;;;5094772;28;19912;-75
2022/10/03 08:13:43;;;;;;;;;;;12.80;80.10;;;;;;5088341;28;20038;-77
2022/10/03 08:16:13;;;;;;;;;;;12.90;79.90;;;;;;5089111;28;19951;-74
2022/10/03 08:18:47;;;;;;;;;;;13.00;79.90;;;;;;5085177;28;19917;-77
2022/10/03 08:21:37;;;;;;;;;;;13.10;79.80;;;;;;5088093;28;19972;-77
2022/10/03 08:24:10;;;;;;;;;;;13.30;79.80;;;;;;5060020;28;19920;-76
2022/10/03 08:26:38;;;;;;;;;;;13.40;79.60;;;;;;5070278;28;19944;-77
2022/10/03 08:29:22;;;;;;;;;;;13.50;79.60;;;;;;5088297;28;19998;-77
2022/10/03 08:31:51;;;;;;;;;;;13.60;79.50;;;;;;5083473;28;19928;-75
2022/10/03 08:34:32;;;;;;;;;;;13.70;79.40;;;;;;5053389;28;19916;-76
2022/10/03 08:37:27;;;;;;;;;;;13.70;79.20;;;;;;5080742;28;20693;-76
2022/10/03 08:39:58;;;;;;;;;;;13.80;79.10;;;;;;4981147;28;19914;-77
2022/10/03 08:42:30;;;;;;;;;;;13.90;79.20;;;;;;5094540;28;19938;-76
2022/10/03 08:45:01;;;;;;;;;;;14.00;79.00;;;;;;5090487;28;19959;-76
2022/10/03 08:47:31;;;;;;;;;;;14.10;78.90;;;;;;5060359;28;19976;-75
2022/10/03 08:50:19;;;;;;;;;;;14.30;79.80;;;;;;5066129;28;19924;-74
2022/10/03 08:53:03;;;;;;;;;;;14.30;78.80;;;;;;5083795;28;19951;-75
2022/10/03 08:55:31;;;;;;;;;;;14.50;78.80;;;;;;5086808;28;20008;-74
2022/10/03 08:58:11;;;;;;;;;;;14.60;78.70;;;;;;5069754;28;19988;-75
2022/10/03 09:00:56;;;;;;;;;;;14.70;78.60;;;;;;5081248;28;19955;-76
2022/10/03 09:03:30;;;;;;;;;;;14.70;78.40;;;;;;5069913;28;19960;-76
2022/10/03 09:05:57;;;;;;;;;;;14.80;78.40;;;;;;5071591;28;19912;-76
2022/10/03 09:08:38;;;;;;;;;;;14.90;78.30;;;;;;5070032;28;19927;-76
2022/10/03 09:11:03;;;;;;;;;;;15.00;78.30;;;;;;5064947;28;19999;-76
2022/10/03 09:13:32;;;;;;;;;;;15.10;78.10;;;;;;5084661;28;19963;-77
2022/10/03 09:15:57;;;;;;;;;;;15.20;78.00;;;;;;5086579;28;19979;-77
2022/10/03 09:18:25;;;;;;;;;;;15.30;78.00;;;;;;5088546;28;19959;-76
2022/10/03 09:20:52;;;;;;;;;;;15.40;78.00;;;;;;5078341;28;19951;-76
2022/10/03 09:23:23;;;;;;;;;;;15.50;77.90;;;;;;5093176;28;20070;-76
2022/10/03 09:25:49;;;;;;;;;;;15.60;77.80;;;;;;5074626;28;19939;-76
2022/10/03 09:28:14;;;;;;;;;;;15.60;77.70;;;;;;5077090;28;20277;-77
2022/10/03 09:30:42;;;;;;;;;;;15.70;77.60;;;;;;5078575;28;19912;-77
2022/10/03 09:33:14;;;;;;;;;;;15.80;77.60;;;;;;5086819;28;19987;-78
2022/10/03 09:35:43;;;;;;;;;;;15.90;77.50;;;;;;5087066;28;20033;-77
2022/10/03 09:38:11;;;;;;;;;;;15.90;77.40;;;;;;5091277;28;19912;-77
2022/10/03 09:40:56;;;;;;;;;;;16.00;77.40;;;;;;5076006;28;19913;-76
2022/10/03 09:43:27;;;;;;;;;;;16.00;77.20;;;;;;5088891;28;19970;-77
2022/10/03 09:46:01;;;;;;;;;;;16.10;77.20;;;;;;5090536;28;19923;-77
2022/10/03 09:48:45;;;;;;;;;;;16.20;77.20;;;;;;5060357;28;20422;-77
2022/10/03 09:51:14;;;;;;;;;;;16.30;77.10;;;;;;5087419;28;19954;-77
2022/10/03 09:54:03;;;;;;;;;;;16.30;77.00;;;;;;5078173;28;19951;-76
2022/10/03 09:56:29;;;;;;;;;;;16.30;77.00;;;;;;5075625;28;19920;-77
2022/10/03 09:59:07;;;;;;;;;;;16.40;77.00;;;;;;5091108;28;19920;-78
2022/10/03 10:02:05;;;;;;;;;;;16.40;76.90;;;;;;5073666;28;19923;-77
2022/10/03 10:04:33;;;;;;;;;;;16.50;76.90;;;;;;5027663;28;19920;-75
2022/10/03 10:07:18;;;;;;;;;;;16.50;76.90;;;;;;5091031;28;19912;-77
2022/10/03 10:09:47;;;;;;;;;;;16.50;76.80;;;;;;5098641;28;19924;-76
2022/10/03 10:12:28;;;;;;;;;;;16.60;76.70;;;;;;5081525;28;19912;-77
2022/10/03 10:15:00;;;;;;;;;;;16.60;76.70;;;;;;5081398;28;19916;-75
2022/10/03 10:17:44;;;;;;;;;;;16.70;76.60;;;;;;5086278;28;19927;-75
2022/10/03 10:20:10;;;;;;;;;;;16.70;76.60;;;;;;5083737;28;20564;-75
2022/10/03 10:22:55;;;;;;;;;;;16.70;76.60;;;;;;5075167;28;19916;-75
2022/10/03 10:25:26;;;;;;;;;;;16.70;76.60;;;;;;5074459;28;19912;-76
2022/10/03 10:28:14;;;;;;;;;;;16.80;76.60;;;;;;5069993;28;19966;-76
2022/10/03 10:30:54;;;;;;;;;;;16.80;76.50;;;;;;5072523;28;19952;-77
2022/10/03 10:33:20;;;;;;;;;;;16.90;76.50;;;;;;5079430;28;19970;-76
2022/10/03 10:36:05;;;;;;;;;;;16.90;76.40;;;;;;5092461;28;19950;-77
2022/10/03 10:38:50;;;;;;;;;;;17.00;76.40;;;;;;5093558;28;19920;-77
2022/10/03 10:41:27;;;;;;;;;;;17.00;76.30;;;;;;5094458;28;19955;-78
2022/10/03 10:44:12;;;;;;;;;;;16.90;76.10;;;;;;5088252;28;20443;-78
2022/10/03 10:46:56;;;;;;;;;;;16.90;76.20;;;;;;5092068;28;19912;-77
2022/10/03 10:49:24;;;;;;;;;;;17.00;76.30;;;;;;5078205;28;19916;-76
2022/10/03 10:51:57;;;;;;;;;;;17.00;76.20;;;;;;5078738;28;19911;-76
2022/10/03 10:54:23;;;;;;;;;;;17.10;76.20;;;;;;5076633;28;19924;-77
2022/10/03 10:56:57;;;;;;;;;;;17.20;76.10;;;;;;5091114;28;19920;-77
2022/10/03 10:59:28;;;;;;;;;;;17.20;76.10;;;;;;5077910;28;19965;-77
2022/10/03 11:02:09;;;;;;;;;;;17.30;76.00;;;;;;5095634;28;19920;-77
2022/10/03 11:04:53;;;;;;;;;;;17.40;76.00;;;;;;5060602;28;20002;-77
2022/10/03 11:07:37;;;;;;;;;;;17.40;75.90;;;;;;5095205;28;20003;-78
2022/10/03 11:10:15;;;;;;;;;;;17.50;75.80;;;;;;5090642;28;19912;-76
2022/10/03 11:13:00;;;;;;;;;;;17.60;75.70;;;;;;5075448;28;19983;-76
2022/10/03 11:15:46;;;;;;;;;;;17.60;75.60;;;;;;5091388;28;19996;-76
2022/10/03 11:18:14;;;;;;;;;;;17.70;75.60;;;;;;5090564;28;20612;-76
2022/10/03 11:20:46;;;;;;;;;;;17.70;75.50;;;;;;5087907;28;19948;-77
2022/10/03 11:23:23;;;;;;;;;;;17.70;75.40;;;;;;5109845;28;19959;-76
2022/10/03 11:26:17;;;;;;;;;;;17.70;75.30;;;;;;5088564;28;19937;-77
2022/10/03 11:28:57;;;;;;;;;;;17.70;75.30;;;;;;5067828;28;20082;-78
2022/10/03 11:31:41;;;;;;;;;;;17.80;75.40;;;;;;5110246;28;19950;-78
2022/10/03 11:34:26;;;;;;;;;;;17.80;75.40;;;;;;5072548;28;19924;-77
2022/10/03 11:37:24;;;;;;;;;;;17.80;75.30;;;;;;5099798;28;20019;-76
2022/10/03 11:40:08;;;;;;;;;;;17.80;75.30;;;;;;5036593;28;20006;-77
2022/10/03 11:42:40;;;;;;;;;;;17.80;75.30;;;;;;5097996;28;19943;-78
2022/10/03 11:45:10;;;;;;;;;;;17.80;75.20;;;;;;5078235;28;19988;-76
2022/10/03 11:47:49;;;;;;;;;;;17.90;75.30;;;;;;5098330;28;20420;-78
2022/10/03 11:50:28;;;;;;;;;;;17.90;75.20;;;;;;5052879;28;20384;-77
2022/10/03 11:53:13;;;;;;;;;;;17.90;75.10;;;;;;5075179;28;19967;-78
2022/10/03 11:56:01;;;;;;;;;;;17.90;75.10;;;;;;5064371;28;19913;-77
2022/10/03 11:58:33;;;;;;;;;;;17.90;75.00;;;;;;5082968;28;20287;-77
2022/10/03 12:01:17;;;;;;;;;;;18.00;75.00;;;;;;5080039;28;19916;-78
2022/10/03 12:03:48;;;;;;;;;;;18.00;75.00;;;;;;5063039;28;19915;-77
2022/10/03 12:09:13;;;;;;;;;;;18.00;74.90;;;;;;5066723;28;20614;-78
2022/10/03 12:11:41;;;;;;;;;;;18.00;74.90;;;;;;5069074;28;19912;-76
2022/10/03 12:14:10;;;;;;;;;;;18.00;74.80;;;;;;5084214;28;20565;-76
2022/10/03 12:16:50;;;;;;;;;;;18.00;74.80;;;;;;5090867;28;19946;-76
2022/10/03 12:19:19;;;;;;;;;;;18.00;74.90;;;;;;5057134;28;19988;-77
2022/10/03 12:21:52;;;;;;;;;;;18.00;74.80;;;;;;5088553;28;19951;-77
2022/10/03 12:24:23;;;;;;;;;;;18.10;74.90;;;;;;5096426;28;20316;-78
2022/10/03 12:26:59;;;;;;;;;;;18.20;74.90;;;;;;5077541;28;19936;-77
2022/10/03 12:29:25;;;;;;;;;;;18.30;74.90;;;;;;5094691;28;19920;-78
2022/10/03 12:31:57;;;;;;;;;;;18.40;74.70;;;;;;5075788;28;19911;-77
2022/10/03 12:34:25;;;;;;;;;;;18.50;74.50;;;;;;5097400;28;19935;-77
2022/10/03 12:37:10;;;;;;;;;;;18.60;74.30;;;;;;5091876;28;20172;-78
2022/10/03 12:39:43;;;;;;;;;;;18.70;74.20;;;;;;5090898;28;19920;-77
2022/10/03 12:42:19;;;;;;;;;;;18.70;74.00;;;;;;5076935;28;19916;-77
2022/10/03 12:44:56;;;;;;;;;;;18.70;74.00;;;;;;5080755;28;19921;-77
2022/10/03 12:47:40;;;;;;;;;;;18.60;74.00;;;;;;5062283;28;20347;-77
2022/10/03 12:50:21;;;;;;;;;;;18.70;74.00;;;;;;5097908;28;19916;-77
2022/10/03 12:52:47;;;;;;;;;;;18.70;74.00;;;;;;5090440;28;19912;-76
2022/10/03 12:55:26;;;;;;;;;;;18.70;73.90;;;;;;5096553;28;19916;-77
2022/10/03 12:57:54;;;;;;;;;;;18.70;73.90;;;;;;5097341;28;20006;-77
2022/10/03 13:00:21;;;;;;;;;;;18.70;73.90;;;;;;5094696;28;19920;-78
2022/10/03 13:03:07;;;;;;;;;;;18.70;73.90;;;;;;5064430;28;19916;-77
2022/10/03 13:05:35;;;;;;;;;;;18.70;73.90;;;;;;5110988;28;19943;-77
2022/10/03 13:08:01;;;;;;;;;;;18.70;74.00;;;;;;5097484;28;19922;-76
2022/10/03 13:10:46;;;;;;;;;;;18.70;73.80;;;;;;5094340;28;19923;-77
2022/10/03 13:13:29;;;;;;;;;;;18.80;73.80;;;;;;5108107;28;19920;-77
2022/10/03 13:16:14;;;;;;;;;;;18.90;73.80;;;;;;5099058;28;19920;-75
2022/10/03 13:18:47;;;;;;;;;;;19.10;73.70;;;;;;5095341;28;20482;-77
2022/10/03 13:21:12;;;;;;;;;;;19.30;73.60;;;;;;5081507;28;19932;-76
2022/10/03 13:23:38;;;;;;;;;;;19.40;73.30;;;;;;5100732;28;19916;-76
2022/10/03 13:26:09;;;;;;;;;;;19.40;73.40;;;;;;5099434;28;19916;-76
2022/10/03 13:28:47;;;;;;;;;;;19.50;73.00;;;;;;5095937;28;19910;-77
2022/10/03 13:31:15;;;;;;;;;;;19.60;73.10;;;;;;5099192;28;19912;-77
2022/10/03 13:33:43;;;;;;;;;;;19.60;72.90;;;;;;5070797;28;19916;-77
2022/10/03 13:36:13;;;;;;;;;;;19.70;72.80;;;;;;5083984;28;19916;-76
2022/10/03 13:38:45;;;;;;;;;;;19.80;72.70;;;;;;5083429;28;19963;-76
2022/10/03 13:41:11;;;;;;;;;;;19.80;72.60;;;;;;5081585;28;19947;-77
2022/10/03 13:43:37;;;;;;;;;;;20.00;72.60;;;;;;5100053;28;19912;-77
2022/10/03 13:46:06;;;;;;;;;;;20.00;72.40;;;;;;5073717;28;19973;-77
2022/10/03 13:48:32;;;;;;;;;;;20.10;72.20;;;;;;5068947;28;20033;-75
2022/10/03 13:51:01;;;;;;;;;;;20.30;72.30;;;;;;5100498;28;19916;-76
2022/10/03 13:53:38;;;;;;;;;;;20.40;72.10;;;;;;5115341;28;19920;-77
2022/10/03 13:56:14;;;;;;;;;;;20.50;71.90;;;;;;5075873;28;19920;-77
2022/10/03 13:58:43;;;;;;;;;;;20.60;71.70;;;;;;5063966;28;19916;-77
2022/10/03 14:01:33;;;;;;;;;;;20.70;71.70;;;;;;5083133;28;19907;-76
2022/10/03 14:04:18;;;;;;;;;;;20.70;71.50;;;;;;5084750;28;19919;-77
2022/10/03 14:07:02;;;;;;;;;;;20.80;71.40;;;;;;5081306;28;19926;-77
2022/10/03 14:09:37;;;;;;;;;;;21.00;71.30;;;;;;5088825;28;19922;-77
2022/10/03 14:12:03;;;;;;;;;;;21.10;72.00;;;;;;5101390;28;19927;-77
2022/10/03 14:15:04;;;;;;;;;;;21.10;70.90;;;;;;5083469;28;19947;-76
2022/10/03 14:17:49;;;;;;;;;;;21.10;70.80;;;;;;5036194;28;19948;-76
2022/10/03 14:20:20;;;;;;;;;;;21.20;70.80;;;;;;5039734;28;19913;-77
2022/10/03 14:23:04;;;;;;;;;;;21.20;70.80;;;;;;5038087;28;19913;-77
2022/10/03 14:25:33;;;;;;;;;;;21.20;70.60;;;;;;5036187;28;19917;-78
2022/10/03 14:28:06;;;;;;;;;;;21.20;70.60;;;;;;5027904;28;19927;-77
2022/10/03 14:30:35;;;;;;;;;;;21.20;70.60;;;;;;5028330;28;19905;-77
2022/10/03 14:33:05;;;;;;;;;;;21.20;70.60;;;;;;5029289;28;19914;-77
2022/10/03 14:35:49;;;;;;;;;;;21.20;70.60;;;;;;5017289;28;20009;-78
2022/10/03 14:38:56;;;;;;;;;;;21.20;70.60;;;;;;5041685;28;19913;-77
2022/10/03 14:41:13;;;;;;;;;;;21.20;70.50;;;;;;5038191;28;19936;-78
2022/10/03 14:43:46;;;;;;;;;;;21.20;70.60;;;;;;5025545;28;19944;-77
2022/10/03 14:46:14;;;;;;;;;;;21.20;70.50;;;;;;5043556;28;19913;-77
2022/10/03 14:48:43;;;;;;;;;;;21.20;70.40;;;;;;5032733;28;19896;-77
2022/10/03 14:51:11;;;;;;;;;;;21.20;70.40;;;;;;5047603;28;19915;-77
2022/10/03 14:53:38;;;;;;;;;;;21.20;70.50;;;;;;5077048;28;19908;-76
2022/10/03 14:56:08;;;;;;;;;;;21.20;70.40;;;;;;5092034;28;19915;-77
2022/10/03 14:58:43;;;;;;;;;;;21.20;70.40;;;;;;5084555;28;19900;-77
2022/10/03 15:01:27;;;;;;;;;;;21.10;70.40;;;;;;5084654;28;19944;-79
2022/10/03 15:04:05;;;;;;;;;;;21.10;70.40;;;;;;5054647;28;19913;-78
2022/10/03 15:06:35;;;;;;;;;;;21.10;70.40;;;;;;5087052;28;19935;-76
2022/10/03 15:09:10;;;;;;;;;;;21.10;70.40;;;;;;5064293;28;19912;-78
2022/10/03 15:11:36;;;;;;;;;;;21.10;70.40;;;;;;5079145;28;20166;-75
2022/10/03 15:14:03;;;;;;;;;;;21.10;70.40;;;;;;5085687;28;19923;-77
2022/10/03 15:16:33;;;;;;;;;;;21.10;70.40;;;;;;5098380;28;19920;-77
2022/10/03 15:19:17;;;;;;;;;;;21.10;70.40;;;;;;5084993;28;19912;-77